sensor_id;sensor_type;location;lat;lon;timestamp;pressure;altitude;pressure_sealevel;temperature;humidity
9764;BME280;4921;43.214;27.936;2023-04-03T00:02:04;100338.72;;;13.47;100.00
9764;BME280;4921;43.214;27.936;2023-04-03T00:04:31;100337.88;;;13.46;100.00
9764;BME280;4921;43.214;27.936;2023-04-03T00:06:58;100338.19;;;13.43;100.00
9764;BME280;4921;43.214;27.936;2023-04-03T00:09:25;100342.47;;;13.44;100.00
9764;BME280;4921;43.214;27.936;2023-04-03T00:11:52;100334.72;;;13.43;100.00
9764;BME280;4921;43.214;27.936;2023-04-03T00:14:21;100330.38;;;13.42;100.00
9764;BME280;4921;43.214;27.936;2023-04-03T00:16:48;100346.22;;;13.42;100.00
9764;BME280;4921;43.214;27.936;2023-04-03T00:19:14;100335.00;;;13.40;100.00
9764;BME280;4921;43.214;27.936;2023-04-03T00:21:42;100336.78;;;13.39;100.00
9764;BME280;4921;43.214;27.936;2023-04-03T00:24:08;100347.06;;;13.42;100.00
9764;BME280;4921;43.214;27.936;2023-04-03T00:26:35;100341.63;;;13.44;100.00
9764;BME280;4921;43.214;27.936;2023-04-03T00:29:02;100339.56;;;13.47;100.00
9764;BME280;4921;43.214;27.936;2023-04-03T00:31:31;100336.91;;;13.47;100.00
9764;BME280;4921;43.214;27.936;2023-04-03T00:33:58;100330.50;;;13.50;100.00
9764;BME280;4921;43.214;27.936;2023-04-03T00:36:25;100328.53;;;13.52;100.00
9764;BME280;4921;43.214;27.936;2023-04-03T00:38:52;100331.72;;;13.55;100.00
9764;BME280;4921;43.214;27.936;2023-04-03T00:41:19;100331.72;;;13.55;100.00
9764;BME280;4921;43.214;27.936;2023-04-03T00:43:47;100322.34;;;13.43;100.00
9764;BME280;4921;43.214;27.936;2023-04-03T00:46:13;100335.19;;;13.56;100.00
9764;BME280;4921;43.214;27.936;2023-04-03T00:48:44;100333.81;;;13.52;100.00
9764;BME280;4921;43.214;27.936;2023-04-03T00:51:13;100334.50;;;13.54;100.00
9764;BME280;4921;43.214;27.936;2023-04-03T00:53:46;100329.50;;;13.51;100.00
9764;BME280;4921;43.214;27.936;2023-04-03T00:56:15;100327.31;;;13.46;100.00
9764;BME280;4921;43.214;27.936;2023-04-03T00:58:45;100319.69;;;13.43;100.00
9764;BME280;4921;43.214;27.936;2023-04-03T01:01:17;100316.91;;;13.45;100.00
9764;BME280;4921;43.214;27.936;2023-04-03T01:03:46;100321.19;;;13.46;100.00
9764;BME280;4921;43.214;27.936;2023-04-03T01:06:16;100321.78;;;13.40;100.00
9764;BME280;4921;43.214;27.936;2023-04-03T01:08:44;100319.13;;;13.40;100.00
9764;BME280;4921;43.214;27.936;2023-04-03T01:11:12;100320.94;;;13.39;100.00
9764;BME280;4921;43.214;27.936;2023-04-03T01:13:39;100312.34;;;13.37;100.00
9764;BME280;4921;43.214;27.936;2023-04-03T01:16:06;100310.97;;;13.33;100.00
9764;BME280;4921;43.214;27.936;2023-04-03T01:18:36;100287.03;;;13.17;100.00
9764;BME280;4921;43.214;27.936;2023-04-03T01:21:26;100298.88;;;13.31;100.00
9764;BME280;4921;43.214;27.936;2023-04-03T01:24:10;100299.19;;;13.28;100.00
9764;BME280;4921;43.214;27.936;2023-04-03T01:26:39;100305.75;;;13.24;100.00
9764;BME280;4921;43.214;27.936;2023-04-03T01:29:07;100310.19;;;13.23;100.00
9764;BME280;4921;43.214;27.936;2023-04-03T01:31:48;100309.22;;;13.24;100.00
9764;BME280;4921;43.214;27.936;2023-04-03T01:34:15;100306.72;;;13.23;100.00
9764;BME280;4921;43.214;27.936;2023-04-03T01:36:42;100304.38;;;13.20;100.00
9764;BME280;4921;43.214;27.936;2023-04-03T01:39:10;100283.47;;;13.09;100.00
9764;BME280;4921;43.214;27.936;2023-04-03T01:41:37;100310.34;;;13.22;100.00
9764;BME280;4921;43.214;27.936;2023-04-03T01:44:04;100304.91;;;13.23;100.00
9764;BME280;4921;43.214;27.936;2023-04-03T01:46:31;100308.72;;;13.11;100.00
9764;BME280;4921;43.214;27.936;2023-04-03T01:48:59;100321.88;;;13.21;100.00
9764;BME280;4921;43.214;27.936;2023-04-03T01:51:26;100324.69;;;13.19;100.00
9764;BME280;4921;43.214;27.936;2023-04-03T01:53:53;100332.44;;;13.21;100.00
9764;BME280;4921;43.214;27.936;2023-04-03T01:56:20;100337.19;;;13.17;100.00
9764;BME280;4921;43.214;27.936;2023-04-03T01:58:47;100342.47;;;13.17;100.00
9764;BME280;4921;43.214;27.936;2023-04-03T02:01:14;100339.16;;;13.15;100.00
9764;BME280;4921;43.214;27.936;2023-04-03T02:03:41;100352.22;;;13.07;100.00
9764;BME280;4921;43.214;27.936;2023-04-03T02:06:09;100352.56;;;12.85;100.00
9764;BME280;4921;43.214;27.936;2023-04-03T02:08:36;100351.19;;;12.71;100.00
9764;BME280;4921;43.214;27.936;2023-04-03T02:11:03;100351.59;;;12.76;100.00
9764;BME280;4921;43.214;27.936;2023-04-03T02:13:30;100356.19;;;12.74;100.00
9764;BME280;4921;43.214;27.936;2023-04-03T02:15:57;100352.59;;;12.56;100.00
9764;BME280;4921;43.214;27.936;2023-04-03T02:18:25;100367.72;;;12.45;100.00
9764;BME280;4921;43.214;27.936;2023-04-03T02:20:51;100364.44;;;12.33;100.00
9764;BME280;4921;43.214;27.936;2023-04-03T02:23:20;100358.06;;;12.36;100.00
9764;BME280;4921;43.214;27.936;2023-04-03T02:25:47;100356.50;;;12.23;100.00
9764;BME280;4921;43.214;27.936;2023-04-03T02:28:14;100348.88;;;12.11;100.00
9764;BME280;4921;43.214;27.936;2023-04-03T02:30:41;100347.50;;;12.07;100.00
9764;BME280;4921;43.214;27.936;2023-04-03T02:33:08;100346.25;;;12.20;100.00
9764;BME280;4921;43.214;27.936;2023-04-03T02:35:35;100354.41;;;12.27;100.00
9764;BME280;4921;43.214;27.936;2023-04-03T02:38:02;100356.94;;;12.29;100.00
9764;BME280;4921;43.214;27.936;2023-04-03T02:40:30;100349.59;;;12.22;100.00
9764;BME280;4921;43.214;27.936;2023-04-03T02:42:57;100353.19;;;12.21;100.00
9764;BME280;4921;43.214;27.936;2023-04-03T02:45:24;100343.75;;;12.29;100.00
9764;BME280;4921;43.214;27.936;2023-04-03T02:47:51;100349.56;;;12.32;100.00
9764;BME280;4921;43.214;27.936;2023-04-03T02:50:18;100353.59;;;12.27;100.00
9764;BME280;4921;43.214;27.936;2023-04-03T02:52:45;100350.53;;;12.21;100.00
9764;BME280;4921;43.214;27.936;2023-04-03T02:55:14;100359.84;;;12.16;100.00
9764;BME280;4921;43.214;27.936;2023-04-03T02:57:43;100363.88;;;12.20;100.00
9764;BME280;4921;43.214;27.936;2023-04-03T03:00:10;100354.56;;;12.16;100.00
9764;BME280;4921;43.214;27.936;2023-04-03T03:02:38;100365.09;;;12.06;100.00
9764;BME280;4921;43.214;27.936;2023-04-03T03:05:06;100364.28;;;12.15;100.00
9764;BME280;4921;43.214;27.936;2023-04-03T03:07:33;100369.25;;;12.18;100.00
9764;BME280;4921;43.214;27.936;2023-04-03T03:10:00;100376.09;;;12.31;100.00
9764;BME280;4921;43.214;27.936;2023-04-03T03:12:27;100375.25;;;12.40;100.00
9764;BME280;4921;43.214;27.936;2023-04-03T03:14:55;100381.91;;;12.44;100.00
9764;BME280;4921;43.214;27.936;2023-04-03T03:17:22;100386.91;;;12.37;100.00
9764;BME280;4921;43.214;27.936;2023-04-03T03:19:49;100389.53;;;12.37;100.00
9764;BME280;4921;43.214;27.936;2023-04-03T03:22:16;100388.13;;;12.43;100.00
9764;BME280;4921;43.214;27.936;2023-04-03T03:24:43;100394.94;;;12.45;100.00
9764;BME280;4921;43.214;27.936;2023-04-03T03:27:10;100393.28;;;12.44;100.00
9764;BME280;4921;43.214;27.936;2023-04-03T03:29:38;100395.38;;;12.50;100.00
9764;BME280;4921;43.214;27.936;2023-04-03T03:32:06;100404.50;;;12.56;100.00
9764;BME280;4921;43.214;27.936;2023-04-03T03:34:33;100405.78;;;12.52;100.00
9764;BME280;4921;43.214;27.936;2023-04-03T03:37:00;100405.75;;;12.42;100.00
9764;BME280;4921;43.214;27.936;2023-04-03T03:39:27;100415.75;;;12.39;100.00
9764;BME280;4921;43.214;27.936;2023-04-03T03:41:54;100412.16;;;12.40;100.00
9764;BME280;4921;43.214;27.936;2023-04-03T03:44:21;100422.00;;;12.28;100.00
9764;BME280;4921;43.214;27.936;2023-04-03T03:46:48;100425.34;;;12.30;100.00
9764;BME280;4921;43.214;27.936;2023-04-03T03:49:17;100436.31;;;12.35;100.00
9764;BME280;4921;43.214;27.936;2023-04-03T03:51:43;100434.78;;;12.52;100.00
9764;BME280;4921;43.214;27.936;2023-04-03T03:54:11;100427.44;;;12.74;100.00
9764;BME280;4921;43.214;27.936;2023-04-03T03:56:38;100436.44;;;12.91;100.00
9764;BME280;4921;43.214;27.936;2023-04-03T03:59:05;100436.41;;;13.20;100.00
9764;BME280;4921;43.214;27.936;2023-04-03T04:01:32;100432.47;;;13.33;100.00
9764;BME280;4921;43.214;27.936;2023-04-03T04:03:59;100429.91;;;13.51;100.00
9764;BME280;4921;43.214;27.936;2023-04-03T04:06:27;100436.38;;;13.66;100.00
9764;BME280;4921;43.214;27.936;2023-04-03T04:08:54;100436.72;;;13.81;100.00
9764;BME280;4921;43.214;27.936;2023-04-03T04:11:21;100441.50;;;13.95;100.00
9764;BME280;4921;43.214;27.936;2023-04-03T04:13:48;100443.72;;;13.99;100.00
9764;BME280;4921;43.214;27.936;2023-04-03T04:16:15;100439.03;;;14.11;100.00
9764;BME280;4921;43.214;27.936;2023-04-03T04:18:42;100438.22;;;14.28;100.00
9764;BME280;4921;43.214;27.936;2023-04-03T04:21:09;100434.78;;;14.45;100.00
9764;BME280;4921;43.214;27.936;2023-04-03T04:23:37;100434.72;;;14.55;100.00
9764;BME280;4921;43.214;27.936;2023-04-03T04:26:04;100439.19;;;14.54;100.00
9764;BME280;4921;43.214;27.936;2023-04-03T04:28:31;100440.41;;;14.42;100.00
9764;BME280;4921;43.214;27.936;2023-04-03T04:30:58;100452.03;;;14.31;100.00
9764;BME280;4921;43.214;27.936;2023-04-03T04:33:25;100446.75;;;14.22;99.50
9764;BME280;4921;43.214;27.936;2023-04-03T04:35:52;100450.75;;;14.08;99.13
9764;BME280;4921;43.214;27.936;2023-04-03T04:38:19;100442.13;;;14.06;100.00
9764;BME280;4921;43.214;27.936;2023-04-03T04:40:48;100439.59;;;14.14;100.00
9764;BME280;4921;43.214;27.936;2023-04-03T04:43:15;100445.34;;;14.27;100.00
9764;BME280;4921;43.214;27.936;2023-04-03T04:45:43;100446.13;;;14.37;100.00
9764;BME280;4921;43.214;27.936;2023-04-03T04:48:10;100442.03;;;14.43;100.00
9764;BME280;4921;43.214;27.936;2023-04-03T04:50:37;100440.75;;;14.47;98.55
9764;BME280;4921;43.214;27.936;2023-04-03T04:53:04;100441.59;;;14.47;94.47
9764;BME280;4921;43.214;27.936;2023-04-03T04:55:31;100435.78;;;14.44;92.92
9764;BME280;4921;43.214;27.936;2023-04-03T04:57:59;100434.78;;;14.45;91.93
9764;BME280;4921;43.214;27.936;2023-04-03T05:00:26;100432.47;;;14.42;90.47
9764;BME280;4921;43.214;27.936;2023-04-03T05:02:53;100431.63;;;14.41;91.04
9764;BME280;4921;43.214;27.936;2023-04-03T05:05:20;100427.00;;;14.43;90.44
9764;BME280;4921;43.214;27.936;2023-04-03T05:07:48;100430.16;;;14.47;88.85
9764;BME280;4921;43.214;27.936;2023-04-03T05:10:15;100436.31;;;14.47;89.19
9764;BME280;4921;43.214;27.936;2023-04-03T05:12:41;100437.66;;;14.51;88.94
9764;BME280;4921;43.214;27.936;2023-04-03T05:15:10;100442.94;;;14.51;88.16
9764;BME280;4921;43.214;27.936;2023-04-03T05:17:37;100433.88;;;14.54;88.31
9764;BME280;4921;43.214;27.936;2023-04-03T05:20:06;100435.13;;;14.60;87.74
9764;BME280;4921;43.214;27.936;2023-04-03T05:22:34;100435.34;;;14.66;86.49
9764;BME280;4921;43.214;27.936;2023-04-03T05:25:00;100433.19;;;14.70;86.27
9764;BME280;4921;43.214;27.936;2023-04-03T05:27:27;100432.13;;;14.80;84.19
9764;BME280;4921;43.214;27.936;2023-04-03T05:29:55;100427.03;;;14.87;83.59
9764;BME280;4921;43.214;27.936;2023-04-03T05:32:24;100428.25;;;14.92;83.85
9764;BME280;4921;43.214;27.936;2023-04-03T05:34:52;100426.81;;;14.98;83.79
9764;BME280;4921;43.214;27.936;2023-04-03T05:37:19;100424.16;;;14.98;83.85
9764;BME280;4921;43.214;27.936;2023-04-03T05:39:46;100435.94;;;15.03;82.66
9764;BME280;4921;43.214;27.936;2023-04-03T05:42:13;100436.81;;;15.12;80.40
9764;BME280;4921;43.214;27.936;2023-04-03T05:44:41;100442.19;;;15.20;78.86
9764;BME280;4921;43.214;27.936;2023-04-03T05:47:08;100440.56;;;15.27;78.57
9764;BME280;4921;43.214;27.936;2023-04-03T05:49:36;100450.56;;;15.33;78.03
9764;BME280;4921;43.214;27.936;2023-04-03T05:52:06;100450.44;;;15.43;78.92
9764;BME280;4921;43.214;27.936;2023-04-03T05:54:33;100448.84;;;15.50;77.76
9764;BME280;4921;43.214;27.936;2023-04-03T05:57:00;100454.38;;;15.64;75.86
9764;BME280;4921;43.214;27.936;2023-04-03T05:59:27;100468.00;;;15.69;76.33
9764;BME280;4921;43.214;27.936;2023-04-03T06:01:54;100467.06;;;15.78;76.26
9764;BME280;4921;43.214;27.936;2023-04-03T06:04:21;100469.94;;;15.93;75.36
9764;BME280;4921;43.214;27.936;2023-04-03T06:06:51;100466.16;;;16.03;75.96
9764;BME280;4921;43.214;27.936;2023-04-03T06:09:20;100462.56;;;16.21;74.23
9764;BME280;4921;43.214;27.936;2023-04-03T06:11:47;100477.53;;;16.30;73.47
9764;BME280;4921;43.214;27.936;2023-04-03T06:14:14;100486.00;;;16.41;73.00
9764;BME280;4921;43.214;27.936;2023-04-03T06:16:41;100487.53;;;16.52;75.57
9764;BME280;4921;43.214;27.936;2023-04-03T06:19:09;100489.56;;;16.66;75.72
9764;BME280;4921;43.214;27.936;2023-04-03T06:21:38;100498.53;;;16.89;79.28
9764;BME280;4921;43.214;27.936;2023-04-03T06:24:07;100502.69;;;17.00;79.72
9764;BME280;4921;43.214;27.936;2023-04-03T06:26:34;100508.84;;;17.16;76.14
9764;BME280;4921;43.214;27.936;2023-04-03T06:29:01;100511.50;;;17.32;73.90
9764;BME280;4921;43.214;27.936;2023-04-03T06:31:28;100524.63;;;17.50;68.35
9764;BME280;4921;43.214;27.936;2023-04-03T06:33:55;100528.97;;;17.51;62.86
9764;BME280;4921;43.214;27.936;2023-04-03T06:36:22;100531.75;;;17.58;65.92
9764;BME280;4921;43.214;27.936;2023-04-03T06:38:49;100542.38;;;17.74;64.86
9764;BME280;4921;43.214;27.936;2023-04-03T06:41:18;100546.47;;;17.92;63.24
9764;BME280;4921;43.214;27.936;2023-04-03T06:43:45;100554.44;;;18.00;64.03
9764;BME280;4921;43.214;27.936;2023-04-03T06:46:15;100558.53;;;18.19;64.14
9764;BME280;4921;43.214;27.936;2023-04-03T06:48:44;100558.56;;;18.11;62.70
9764;BME280;4921;43.214;27.936;2023-04-03T06:51:17;100568.69;;;18.15;60.89
9764;BME280;4921;43.214;27.936;2023-04-03T06:53:45;100564.31;;;18.31;59.57
9764;BME280;4921;43.214;27.936;2023-04-03T06:56:12;100568.44;;;18.33;58.86
9764;BME280;4921;43.214;27.936;2023-04-03T06:58:42;100566.28;;;18.37;59.62
9764;BME280;4921;43.214;27.936;2023-04-03T07:01:10;100562.38;;;18.55;57.72
9764;BME280;4921;43.214;27.936;2023-04-03T07:03:37;100560.16;;;18.67;57.22
9764;BME280;4921;43.214;27.936;2023-04-03T07:06:06;100553.53;;;18.85;56.70
9764;BME280;4921;43.214;27.936;2023-04-03T07:08:34;100550.28;;;18.98;55.33
9764;BME280;4921;43.214;27.936;2023-04-03T07:11:01;100553.91;;;19.05;55.32
9764;BME280;4921;43.214;27.936;2023-04-03T07:13:28;100550.47;;;19.19;55.08
9764;BME280;4921;43.214;27.936;2023-04-03T07:15:57;100551.88;;;19.30;54.53
9764;BME280;4921;43.214;27.936;2023-04-03T07:18:24;100545.34;;;19.32;54.82
9764;BME280;4921;43.214;27.936;2023-04-03T07:20:52;100546.69;;;19.36;56.33
9764;BME280;4921;43.214;27.936;2023-04-03T07:23:19;100553.13;;;19.42;55.23
9764;BME280;4921;43.214;27.936;2023-04-03T07:25:47;100544.78;;;19.45;54.03
9764;BME280;4921;43.214;27.936;2023-04-03T07:28:15;100554.44;;;19.60;54.32
9764;BME280;4921;43.214;27.936;2023-04-03T07:30:43;100550.50;;;19.56;55.83
9764;BME280;4921;43.214;27.936;2023-04-03T07:33:13;100548.47;;;19.58;56.45
9764;BME280;4921;43.214;27.936;2023-04-03T07:35:41;100559.03;;;19.52;52.90
9764;BME280;4921;43.214;27.936;2023-04-03T07:38:09;100564.09;;;19.47;53.35
9764;BME280;4921;43.214;27.936;2023-04-03T07:40:37;100576.16;;;19.57;52.65
9764;BME280;4921;43.214;27.936;2023-04-03T07:43:05;100585.69;;;19.74;52.17
9764;BME280;4921;43.214;27.936;2023-04-03T07:45:34;100591.75;;;19.68;51.23
9764;BME280;4921;43.214;27.936;2023-04-03T07:48:03;100592.69;;;18.54;54.94
9764;BME280;4921;43.214;27.936;2023-04-03T07:50:31;100587.88;;;18.42;56.98
9764;BME280;4921;43.214;27.936;2023-04-03T07:52:58;100594.41;;;18.31;56.64
9764;BME280;4921;43.214;27.936;2023-04-03T07:55:26;100596.81;;;18.10;56.50
9764;BME280;4921;43.214;27.936;2023-04-03T07:57:53;100601.03;;;17.96;57.37
9764;BME280;4921;43.214;27.936;2023-04-03T08:00:21;100601.84;;;17.97;58.31
9764;BME280;4921;43.214;27.936;2023-04-03T08:02:48;100602.00;;;17.95;56.53
9764;BME280;4921;43.214;27.936;2023-04-03T08:05:17;100606.69;;;17.93;57.79
9764;BME280;4921;43.214;27.936;2023-04-03T08:07:45;100606.84;;;17.92;59.56
9764;BME280;4921;43.214;27.936;2023-04-03T08:10:13;100604.66;;;18.03;58.10
9764;BME280;4921;43.214;27.936;2023-04-03T08:12:40;100607.38;;;17.87;58.62
9764;BME280;4921;43.214;27.936;2023-04-03T08:15:08;100608.22;;;17.72;58.90
9764;BME280;4921;43.214;27.936;2023-04-03T08:17:36;100613.38;;;17.65;59.48
9764;BME280;4921;43.214;27.936;2023-04-03T08:20:03;100594.44;;;17.68;59.98
9764;BME280;4921;43.214;27.936;2023-04-03T08:22:32;100608.88;;;17.74;59.68
9764;BME280;4921;43.214;27.936;2023-04-03T08:25:00;100608.69;;;17.91;60.39
9764;BME280;4921;43.214;27.936;2023-04-03T08:27:28;100609.50;;;18.00;61.68
9764;BME280;4921;43.214;27.936;2023-04-03T08:29:55;100609.00;;;17.96;59.61
9764;BME280;4921;43.214;27.936;2023-04-03T08:32:22;100599.06;;;17.74;60.50
9764;BME280;4921;43.214;27.936;2023-04-03T08:34:50;100606.69;;;17.85;60.16
9764;BME280;4921;43.214;27.936;2023-04-03T08:37:17;100593.53;;;18.00;60.63
9764;BME280;4921;43.214;27.936;2023-04-03T08:39:44;100601.78;;;18.21;61.02
9764;BME280;4921;43.214;27.936;2023-04-03T08:42:22;100603.19;;;18.40;60.45
9764;BME280;4921;43.214;27.936;2023-04-03T08:45:00;100611.53;;;18.37;60.09
9764;BME280;4921;43.214;27.936;2023-04-03T08:47:37;100608.41;;;18.25;62.23
9764;BME280;4921;43.214;27.936;2023-04-03T08:50:06;100605.66;;;17.94;61.78
9764;BME280;4921;43.214;27.936;2023-04-03T08:52:37;100606.69;;;17.45;67.02
9764;BME280;4921;43.214;27.936;2023-04-03T08:55:07;100610.84;;;17.39;67.21
9764;BME280;4921;43.214;27.936;2023-04-03T08:57:43;100601.91;;;17.57;67.84
9764;BME280;4921;43.214;27.936;2023-04-03T09:00:16;100603.53;;;17.49;70.95
9764;BME280;4921;43.214;27.936;2023-04-03T09:02:46;100607.00;;;17.18;72.78
9764;BME280;4921;43.214;27.936;2023-04-03T09:05:15;100612.47;;;17.08;75.14
9764;BME280;4921;43.214;27.936;2023-04-03T09:07:45;100611.97;;;16.97;75.64
9764;BME280;4921;43.214;27.936;2023-04-03T09:10:15;100609.91;;;16.74;76.73
9764;BME280;4921;43.214;27.936;2023-04-03T09:12:48;100614.75;;;16.87;77.33
9764;BME280;4921;43.214;27.936;2023-04-03T09:15:19;100612.75;;;16.81;78.88
9764;BME280;4921;43.214;27.936;2023-04-03T09:17:56;100605.63;;;16.90;78.26
9764;BME280;4921;43.214;27.936;2023-04-03T09:20:29;100598.03;;;17.03;80.87
9764;BME280;4921;43.214;27.936;2023-04-03T09:23:01;100599.50;;;16.97;85.67
9764;BME280;4921;43.214;27.936;2023-04-03T09:25:33;100597.34;;;17.01;86.90
9764;BME280;4921;43.214;27.936;2023-04-03T09:28:04;100594.34;;;17.04;88.31
9764;BME280;4921;43.214;27.936;2023-04-03T09:30:35;100600.16;;;16.91;93.25
9764;BME280;4921;43.214;27.936;2023-04-03T09:33:04;100607.78;;;16.86;95.50
9764;BME280;4921;43.214;27.936;2023-04-03T09:35:33;100596.25;;;16.53;100.00
9764;BME280;4921;43.214;27.936;2023-04-03T09:38:15;100603.38;;;16.53;100.00
9764;BME280;4921;43.214;27.936;2023-04-03T09:40:44;100614.28;;;16.50;97.94
9764;BME280;4921;43.214;27.936;2023-04-03T09:43:28;100612.31;;;16.52;98.89
9764;BME280;4921;43.214;27.936;2023-04-03T09:46:15;100623.25;;;16.49;98.44
9764;BME280;4921;43.214;27.936;2023-04-03T09:48:50;100613.00;;;16.28;100.00
9764;BME280;4921;43.214;27.936;2023-04-03T09:51:17;100622.63;;;16.21;100.00
9764;BME280;4921;43.214;27.936;2023-04-03T09:53:45;100617.41;;;16.12;100.00
9764;BME280;4921;43.214;27.936;2023-04-03T09:56:24;100618.13;;;16.22;100.00
9764;BME280;4921;43.214;27.936;2023-04-03T09:59:12;100624.13;;;15.98;100.00
9764;BME280;4921;43.214;27.936;2023-04-03T10:01:43;100619.16;;;15.52;100.00
9764;BME280;4921;43.214;27.936;2023-04-03T10:04:14;100616.34;;;15.53;100.00
9764;BME280;4921;43.214;27.936;2023-04-03T10:06:43;100617.78;;;15.65;100.00
9764;BME280;4921;43.214;27.936;2023-04-03T10:09:20;100609.00;;;15.47;100.00
9764;BME280;4921;43.214;27.936;2023-04-03T10:11:59;100618.69;;;15.39;100.00
9764;BME280;4921;43.214;27.936;2023-04-03T10:14:32;100623.53;;;15.61;100.00
9764;BME280;4921;43.214;27.936;2023-04-03T10:17:15;100616.81;;;15.31;100.00
9764;BME280;4921;43.214;27.936;2023-04-03T10:19:47;100619.66;;;15.55;100.00
9764;BME280;4921;43.214;27.936;2023-04-03T10:22:28;100621.41;;;15.29;100.00
9764;BME280;4921;43.214;27.936;2023-04-03T10:25:12;100613.78;;;15.08;100.00
9764;BME280;4921;43.214;27.936;2023-04-03T10:27:51;100605.72;;;14.83;100.00
9764;BME280;4921;43.214;27.936;2023-04-03T10:30:31;100604.13;;;15.07;100.00
9764;BME280;4921;43.214;27.936;2023-04-03T10:36:01;100594.91;;;15.47;100.00
9764;BME280;4921;43.214;27.936;2023-04-03T10:38:34;100591.59;;;15.45;100.00
9764;BME280;4921;43.214;27.936;2023-04-03T10:41:07;100596.50;;;15.40;100.00
9764;BME280;4921;43.214;27.936;2023-04-03T10:43:43;100593.84;;;15.40;100.00
9764;BME280;4921;43.214;27.936;2023-04-03T10:46:17;100599.53;;;15.62;100.00
9764;BME280;4921;43.214;27.936;2023-04-03T10:49:01;100592.50;;;15.53;100.00
9764;BME280;4921;43.214;27.936;2023-04-03T10:51:36;100592.88;;;15.58;97.85
9764;BME280;4921;43.214;27.936;2023-04-03T10:54:11;100574.97;;;15.86;100.00
9764;BME280;4921;43.214;27.936;2023-04-03T10:56:40;100582.06;;;16.11;95.16
9764;BME280;4921;43.214;27.936;2023-04-03T10:59:16;100580.19;;;15.95;92.08
9764;BME280;4921;43.214;27.936;2023-04-03T11:01:51;100583.97;;;16.19;92.62
9764;BME280;4921;43.214;27.936;2023-04-03T11:04:20;100579.31;;;16.21;91.96
9764;BME280;4921;43.214;27.936;2023-04-03T11:06:53;100582.47;;;16.24;92.61
9764;BME280;4921;43.214;27.936;2023-04-03T11:09:26;100583.41;;;16.41;89.98
9764;BME280;4921;43.214;27.936;2023-04-03T11:11:57;100590.72;;;16.47;87.90
9764;BME280;4921;43.214;27.936;2023-04-03T11:14:30;100579.22;;;16.38;89.68
9764;BME280;4921;43.214;27.936;2023-04-03T11:17:15;100587.94;;;16.23;90.65
9764;BME280;4921;43.214;27.936;2023-04-03T11:19:51;100577.94;;;16.09;91.94
9764;BME280;4921;43.214;27.936;2023-04-03T11:22:23;100583.31;;;15.91;93.96
9764;BME280;4921;43.214;27.936;2023-04-03T11:24:59;100592.63;;;15.95;94.46
9764;BME280;4921;43.214;27.936;2023-04-03T11:27:35;100594.59;;;15.93;92.62
9764;BME280;4921;43.214;27.936;2023-04-03T11:30:07;100584.09;;;15.83;94.70
9764;BME280;4921;43.214;27.936;2023-04-03T11:32:59;100574.78;;;16.13;91.62
9764;BME280;4921;43.214;27.936;2023-04-03T11:35:28;100581.69;;;16.32;93.00
9764;BME280;4921;43.214;27.936;2023-04-03T11:37:57;100586.25;;;16.47;89.37
9764;BME280;4921;43.214;27.936;2023-04-03T11:40:28;100589.25;;;16.52;85.58
9764;BME280;4921;43.214;27.936;2023-04-03T11:43:05;100592.28;;;16.57;81.94
9764;BME280;4921;43.214;27.936;2023-04-03T11:45:38;100593.91;;;16.58;83.24
9764;BME280;4921;43.214;27.936;2023-04-03T11:51:39;100589.81;;;16.64;82.41
9764;BME280;4921;43.214;27.936;2023-04-03T11:54:35;100584.25;;;16.49;80.55
9764;BME280;4921;43.214;27.936;2023-04-03T11:57:22;100581.66;;;16.57;81.53
9764;BME280;4921;43.214;27.936;2023-04-03T12:00:46;100579.66;;;16.59;78.37
9764;BME280;4921;43.214;27.936;2023-04-03T12:03:32;100583.00;;;16.28;79.17
9764;BME280;4921;43.214;27.936;2023-04-03T12:09:00;100595.69;;;15.82;82.75
9764;BME280;4921;43.214;27.936;2023-04-03T12:11:30;100578.88;;;15.31;90.36
9764;BME280;4921;43.214;27.936;2023-04-03T12:14:04;100581.81;;;15.63;90.86
9764;BME280;4921;43.214;27.936;2023-04-03T12:16:33;100573.47;;;15.40;91.46
9764;BME280;4921;43.214;27.936;2023-04-03T12:19:35;100568.41;;;15.47;91.64
9764;BME280;4921;43.214;27.936;2023-04-03T12:24:47;100570.75;;;15.32;97.32
9764;BME280;4921;43.214;27.936;2023-04-03T12:27:23;100571.22;;;15.45;97.45
9764;BME280;4921;43.214;27.936;2023-04-03T12:30:00;100563.72;;;15.23;100.00
9764;BME280;4921;43.214;27.936;2023-04-03T12:32:51;100554.25;;;15.20;100.00
9764;BME280;4921;43.214;27.936;2023-04-03T12:35:28;100564.28;;;15.26;100.00
9764;BME280;4921;43.214;27.936;2023-04-03T12:41:30;100551.19;;;14.72;100.00
9764;BME280;4921;43.214;27.936;2023-04-03T12:44:18;100552.03;;;14.45;100.00
9764;BME280;4921;43.214;27.936;2023-04-03T12:46:49;100542.81;;;14.49;100.00
9764;BME280;4921;43.214;27.936;2023-04-03T12:49:38;100548.00;;;14.51;100.00
9764;BME280;4921;43.214;27.936;2023-04-03T12:52:19;100529.63;;;14.13;100.00
9764;BME280;4921;43.214;27.936;2023-04-03T12:54:47;100523.97;;;14.08;100.00
9764;BME280;4921;43.214;27.936;2023-04-03T12:57:19;100533.38;;;13.93;100.00
9764;BME280;4921;43.214;27.936;2023-04-03T12:59:47;100539.06;;;14.25;100.00
9764;BME280;4921;43.214;27.936;2023-04-03T13:02:21;100550.16;;;14.28;100.00
9764;BME280;4921;43.214;27.936;2023-04-03T13:04:49;100543.78;;;14.31;100.00
9764;BME280;4921;43.214;27.936;2023-04-03T13:07:25;100548.78;;;14.34;100.00
9764;BME280;4921;43.214;27.936;2023-04-03T13:10:09;100543.84;;;14.12;100.00
9764;BME280;4921;43.214;27.936;2023-04-03T13:12:48;100550.50;;;13.89;100.00
9764;BME280;4921;43.214;27.936;2023-04-03T13:15:17;100552.00;;;13.91;100.00
9764;BME280;4921;43.214;27.936;2023-04-03T13:17:44;100546.69;;;13.54;100.00
9764;BME280;4921;43.214;27.936;2023-04-03T13:20:16;100562.06;;;13.78;100.00
9764;BME280;4921;43.214;27.936;2023-04-03T13:22:48;100557.78;;;13.67;100.00
9764;BME280;4921;43.214;27.936;2023-04-03T13:25:17;100553.75;;;13.73;100.00
9764;BME280;4921;43.214;27.936;2023-04-03T13:27:48;100555.94;;;13.77;100.00